createdAt,value
2017-10-28T00:00:16.906Z,1003.13
2017-10-28T00:01:16.653Z,1003.13
2017-10-28T00:02:16.648Z,1003.09
2017-10-28T00:03:16.644Z,1003.1
2017-10-28T00:04:16.641Z,1003.05
2017-10-28T00:05:16.634Z,1003.04
2017-10-28T00:06:16.632Z,1003.05
2017-10-28T00:07:16.639Z,1003.02
2017-10-28T00:08:16.626Z,1003
2017-10-28T00:09:16.627Z,1003.03
2017-10-28T00:10:16.625Z,1003.03
2017-10-28T00:11:16.611Z,1002.97
2017-10-28T00:12:16.606Z,1002.93
2017-10-28T00:13:16.604Z,1002.92
2017-10-28T00:14:16.598Z,1002.96
2017-10-28T00:15:16.594Z,1002.98
2017-10-28T00:16:16.591Z,1002.9
2017-10-28T00:17:16.586Z,1002.89
2017-10-28T00:18:16.581Z,1002.81
2017-10-28T00:19:16.577Z,1002.81
2017-10-28T00:20:17.372Z,1002.77
2017-10-28T00:21:16.575Z,1002.79
2017-10-28T00:22:16.566Z,1002.78
2017-10-28T00:23:16.561Z,1002.75
2017-10-28T00:24:16.556Z,1002.69
2017-10-28T00:25:16.567Z,1002.74
2017-10-28T00:26:16.553Z,1002.73
2017-10-28T00:27:16.542Z,1002.73
2017-10-28T00:28:16.537Z,1002.75
2017-10-28T00:29:16.534Z,1002.82
2017-10-28T00:30:16.971Z,1002.87
2017-10-28T00:31:16.530Z,1002.8
2017-10-28T00:32:16.520Z,1002.79
2017-10-28T00:33:16.516Z,1002.81
2017-10-28T00:34:16.518Z,1002.82
2017-10-28T00:35:16.612Z,1002.82
2017-10-28T00:36:16.505Z,1002.82
2017-10-28T00:37:16.501Z,1002.85
2017-10-28T00:38:16.493Z,1002.82
2017-10-28T00:39:16.495Z,1002.88
2017-10-28T00:40:16.582Z,1002.88
2017-10-28T00:41:16.479Z,1002.93
2017-10-28T00:42:16.475Z,1002.95
2017-10-28T00:43:16.471Z,1002.95
2017-10-28T00:44:16.470Z,1002.94
2017-10-28T00:45:16.460Z,1003
2017-10-28T00:46:16.458Z,1002.98
2017-10-28T00:47:16.453Z,1003
2017-10-28T00:48:16.446Z,1002.95
2017-10-28T00:49:16.442Z,1002.92
2017-10-28T00:50:16.438Z,1002.89
2017-10-28T00:51:16.434Z,1002.8
2017-10-28T00:52:16.438Z,1002.76
2017-10-28T00:53:16.424Z,1002.76
2017-10-28T00:54:16.420Z,1002.76
2017-10-28T00:55:16.414Z,1002.8
2017-10-28T00:56:16.410Z,1002.8
2017-10-28T00:57:16.406Z,1002.8
2017-10-28T00:58:16.406Z,1002.73
2017-10-28T00:59:16.398Z,1002.78
2017-10-28T01:00:16.691Z,1002.74
2017-10-28T01:01:16.387Z,1002.73
2017-10-28T01:02:16.384Z,1002.73
2017-10-28T01:03:16.377Z,1002.74
2017-10-28T01:04:16.384Z,1002.73
2017-10-28T01:05:16.645Z,1002.72
2017-10-28T01:06:16.364Z,1002.68
2017-10-28T01:07:16.360Z,1002.69
2017-10-28T01:08:16.354Z,1002.65
2017-10-28T01:09:16.352Z,1002.65
2017-10-28T01:10:16.351Z,1002.67
2017-10-28T01:11:16.347Z,1002.62
2017-10-28T01:12:16.346Z,1002.64
2017-10-28T01:13:16.337Z,1002.64
2017-10-28T01:14:16.349Z,1002.63
2017-10-28T01:15:16.323Z,1002.61
2017-10-28T01:16:16.319Z,1002.64
2017-10-28T01:17:16.315Z,1002.61
2017-10-28T01:18:16.311Z,1002.62
2017-10-28T01:19:16.305Z,1002.58
2017-10-28T01:20:16.353Z,1002.55
2017-10-28T01:21:16.297Z,1002.56
2017-10-28T01:22:16.294Z,1002.55
2017-10-28T01:23:16.287Z,1002.5
2017-10-28T01:24:16.284Z,1002.49
2017-10-28T01:25:16.282Z,1002.47
2017-10-28T01:26:16.274Z,1002.48
2017-10-28T01:27:16.270Z,1002.5
2017-10-28T01:28:16.265Z,1002.53
2017-10-28T01:29:16.261Z,1002.47
2017-10-28T01:30:16.465Z,1002.47
2017-10-28T01:31:16.252Z,1002.44
2017-10-28T01:32:16.247Z,1002.43
2017-10-28T01:33:16.243Z,1002.43
2017-10-28T01:34:16.240Z,1002.38
2017-10-28T01:35:16.236Z,1002.37
2017-10-28T01:36:16.230Z,1002.35
2017-10-28T01:37:16.226Z,1002.33
2017-10-28T01:38:16.227Z,1002.36
2017-10-28T01:39:16.217Z,1002.4
2017-10-28T01:40:16.213Z,1002.37
2017-10-28T01:41:16.210Z,1002.32
2017-10-28T01:42:16.207Z,1002.31
2017-10-28T01:43:16.203Z,1002.27
2017-10-28T01:44:16.197Z,1002.22
2017-10-28T01:45:16.403Z,1002.22
2017-10-28T01:46:16.199Z,1002.2
2017-10-28T01:47:16.185Z,1002.16
2017-10-28T01:48:16.184Z,1002.13
2017-10-28T01:49:16.181Z,1002.15
2017-10-28T01:50:16.309Z,1002.16
2017-10-28T01:51:16.169Z,1002.15
2017-10-28T01:52:16.167Z,1002.14
2017-10-28T01:53:16.161Z,1002.11
2017-10-28T01:54:16.157Z,1002.09
2017-10-28T01:55:16.152Z,1002.07
2017-10-28T01:56:16.149Z,1002.04
2017-10-28T01:57:16.146Z,1002.08
2017-10-28T01:58:16.143Z,1002.04
2017-10-28T01:59:16.136Z,1002.02
2017-10-28T02:00:16.236Z,1002.05
2017-10-28T02:01:16.128Z,1002.02
2017-10-28T02:02:16.124Z,1002.06
2017-10-28T02:03:16.136Z,1002.04
2017-10-28T02:04:16.118Z,1002
2017-10-28T02:05:16.116Z,1002.01
2017-10-28T02:06:16.110Z,1001.99
2017-10-28T02:07:16.105Z,1002.02
2017-10-28T02:08:16.104Z,1002.06
2017-10-28T02:09:16.099Z,1002.05
2017-10-28T02:10:16.093Z,1002.02
2017-10-28T02:11:16.089Z,1002.02
2017-10-28T02:12:16.087Z,1002.04
2017-10-28T02:13:16.087Z,1002.06
2017-10-28T02:14:16.078Z,1002.05
2017-10-28T02:15:16.075Z,1002.01
2017-10-28T02:16:16.070Z,1001.98
2017-10-28T02:17:16.067Z,1001.97
2017-10-28T02:18:16.065Z,1001.92
2017-10-28T02:19:16.057Z,1001.92
2017-10-28T02:20:16.053Z,1001.9
2017-10-28T02:21:16.066Z,1001.93
2017-10-28T02:22:16.047Z,1001.89
2017-10-28T02:23:16.042Z,1001.92
2017-10-28T02:24:16.038Z,1001.9
2017-10-28T02:25:16.037Z,1001.91
2017-10-28T02:26:16.830Z,1001.91
2017-10-28T02:27:16.048Z,1001.88
2017-10-28T02:28:16.022Z,1001.84
2017-10-28T02:29:16.019Z,1001.84
2017-10-28T02:30:16.018Z,1001.86
2017-10-28T02:31:16.010Z,1001.82
2017-10-28T02:32:16.005Z,1001.81
2017-10-28T02:33:16.002Z,1001.77
2017-10-28T02:34:15.997Z,1001.8
2017-10-28T02:35:15.992Z,1001.74
2017-10-28T02:36:15.990Z,1001.73
2017-10-28T02:37:15.986Z,1001.74
2017-10-28T02:38:15.984Z,1001.76
2017-10-28T02:39:15.976Z,1001.76
2017-10-28T02:40:16.028Z,1001.74
2017-10-28T02:41:15.973Z,1001.75
2017-10-28T02:42:15.966Z,1001.74
2017-10-28T02:43:15.963Z,1001.75
2017-10-28T02:44:15.957Z,1001.74
2017-10-28T02:45:15.996Z,1001.68
2017-10-28T02:46:15.948Z,1001.74
2017-10-28T02:47:15.944Z,1001.75
2017-10-28T02:48:15.940Z,1001.71
2017-10-28T02:49:15.936Z,1001.64
2017-10-28T02:50:16.137Z,1001.72
2017-10-28T02:51:15.927Z,1001.66
2017-10-28T02:52:15.923Z,1001.62
2017-10-28T02:53:15.920Z,1001.64
2017-10-28T02:54:15.919Z,1001.58
2017-10-28T02:55:16.117Z,1001.57
2017-10-28T02:56:15.906Z,1001.54
2017-10-28T02:57:15.907Z,1001.54
2017-10-28T02:58:15.898Z,1001.51
2017-10-28T02:59:15.899Z,1001.48
2017-10-28T03:00:16.460Z,1001.48
2017-10-28T03:01:15.883Z,1001.45
2017-10-28T03:02:15.880Z,1001.45
2017-10-28T03:03:15.876Z,1001.43
2017-10-28T03:04:15.872Z,1001.37
2017-10-28T03:05:15.937Z,1001.33
2017-10-28T03:06:15.864Z,1001.35
2017-10-28T03:07:15.858Z,1001.33
2017-10-28T03:08:15.855Z,1001.32
2017-10-28T03:09:15.850Z,1001.39
2017-10-28T03:10:15.933Z,1001.31
2017-10-28T03:11:15.840Z,1001.36
2017-10-28T03:12:15.836Z,1001.38
2017-10-28T03:13:15.833Z,1001.45
2017-10-28T03:14:15.827Z,1001.46
2017-10-28T03:15:15.946Z,1001.45
2017-10-28T03:16:15.820Z,1001.45
2017-10-28T03:17:15.815Z,1001.45
2017-10-28T03:18:15.811Z,1001.42
2017-10-28T03:19:15.805Z,1001.45
2017-10-28T03:20:15.875Z,1001.43
2017-10-28T03:21:15.796Z,1001.38
2017-10-28T03:22:15.792Z,1001.33
2017-10-28T03:23:15.787Z,1001.32
2017-10-28T03:24:15.790Z,1001.29
2017-10-28T03:25:15.874Z,1001.26
2017-10-28T03:26:15.775Z,1001.31
2017-10-28T03:27:15.769Z,1001.18
2017-10-28T03:28:15.767Z,1001.19
2017-10-28T03:29:15.759Z,1001.19
2017-10-28T03:30:16.010Z,1001.13
2017-10-28T03:31:15.752Z,1001.09
2017-10-28T03:32:15.752Z,1001.09
2017-10-28T03:33:15.741Z,1001.09
2017-10-28T03:34:15.737Z,1001.08
2017-10-28T03:35:16.100Z,1001.06
2017-10-28T03:36:15.736Z,1001.1
2017-10-28T03:37:15.722Z,1001.14
2017-10-28T03:38:15.717Z,1001.14
2017-10-28T03:39:15.713Z,1001.13
2017-10-28T03:40:15.920Z,1001.14
2017-10-28T03:41:15.703Z,1001.09
2017-10-28T03:42:15.698Z,1001.1
2017-10-28T03:43:15.693Z,1001.1
2017-10-28T03:44:15.690Z,1001.1
2017-10-28T03:45:15.984Z,1001.15
2017-10-28T03:46:15.680Z,1001.11
2017-10-28T03:47:15.674Z,1001.15
2017-10-28T03:48:15.675Z,1001.19
2017-10-28T03:49:15.666Z,1001.21
2017-10-28T03:50:15.814Z,1001.19
2017-10-28T03:51:15.656Z,1001.16
2017-10-28T03:52:15.651Z,1001.17
2017-10-28T03:53:15.646Z,1001.14
2017-10-28T03:54:15.641Z,1001.07
2017-10-28T03:55:15.766Z,1001.1
2017-10-28T03:56:15.631Z,1001.08
2017-10-28T03:57:15.626Z,1001.09
2017-10-28T03:58:15.620Z,1001.07
2017-10-28T03:59:15.615Z,1001.06
2017-10-28T04:00:15.641Z,1001.07
2017-10-28T04:01:15.605Z,1001.07
2017-10-28T04:02:15.851Z,1001.09
2017-10-28T04:03:15.596Z,1001.09
2017-10-28T04:04:15.592Z,1001.09
2017-10-28T04:05:15.786Z,1001.07
2017-10-28T04:06:15.586Z,1001.02
2017-10-28T04:07:15.581Z,1000.98
2017-10-28T04:08:15.570Z,1001
2017-10-28T04:09:15.575Z,1000.9
2017-10-28T04:10:15.635Z,1000.93
2017-10-28T04:11:15.556Z,1000.88
2017-10-28T04:12:15.550Z,1000.87
2017-10-28T04:13:15.545Z,1000.81
2017-10-28T04:14:15.541Z,1000.79
2017-10-28T04:15:16.023Z,1000.82
2017-10-28T04:16:15.529Z,1000.8
2017-10-28T04:17:15.524Z,1000.8
2017-10-28T04:18:15.519Z,1000.81
2017-10-28T04:19:15.517Z,1000.84
2017-10-28T04:20:15.684Z,1000.78
2017-10-28T04:21:15.503Z,1000.8
2017-10-28T04:22:15.502Z,1000.79
2017-10-28T04:23:15.493Z,1000.83
2017-10-28T04:24:15.488Z,1000.81
2017-10-28T04:25:15.797Z,1000.85
2017-10-28T04:26:15.478Z,1000.89
2017-10-28T04:27:15.472Z,1000.94
2017-10-28T04:28:15.468Z,1000.91
2017-10-28T04:29:15.461Z,1000.9
2017-10-28T04:30:15.545Z,1000.87
2017-10-28T04:31:15.450Z,1000.87
2017-10-28T04:32:15.452Z,1000.9
2017-10-28T04:33:15.446Z,1000.85
2017-10-28T04:34:15.445Z,1000.87
2017-10-28T04:35:15.541Z,1000.85
2017-10-28T04:36:15.427Z,1000.84
2017-10-28T04:37:15.421Z,1000.82
2017-10-28T04:38:15.415Z,1000.79
2017-10-28T04:39:15.412Z,1000.71
2017-10-28T04:40:15.562Z,1000.73
2017-10-28T04:41:15.402Z,1000.73
2017-10-28T04:42:15.395Z,1000.75
2017-10-28T04:43:15.391Z,1000.71
2017-10-28T04:44:15.388Z,1000.74
2017-10-28T04:45:15.729Z,1000.7
2017-10-28T04:46:15.375Z,1000.73
2017-10-28T04:47:15.371Z,1000.68
2017-10-28T04:48:18.669Z,1000.65
2017-10-28T04:49:15.361Z,1000.63
2017-10-28T04:50:15.914Z,1000.61
2017-10-28T04:51:15.350Z,1000.6
2017-10-28T04:52:15.344Z,1000.52
2017-10-28T04:53:15.338Z,1000.5
2017-10-28T04:54:15.332Z,1000.51
2017-10-28T04:55:15.511Z,1000.5
2017-10-28T04:56:15.324Z,1000.54
2017-10-28T04:57:15.326Z,1000.52
2017-10-28T04:58:15.314Z,1000.48
2017-10-28T04:59:15.310Z,1000.48
2017-10-28T05:00:15.866Z,1000.43
2017-10-28T05:01:15.297Z,1000.49
2017-10-28T05:02:15.292Z,1000.56
2017-10-28T05:03:15.287Z,1000.55
2017-10-28T05:04:15.280Z,1000.61
2017-10-28T05:05:15.679Z,1000.57
2017-10-28T05:06:15.272Z,1000.59
2017-10-28T05:07:15.266Z,1000.62
2017-10-28T05:08:15.263Z,1000.68
2017-10-28T05:09:15.262Z,1000.65
2017-10-28T05:10:15.424Z,1000.62
2017-10-28T05:11:15.248Z,1000.57
2017-10-28T05:12:15.257Z,1000.56
2017-10-28T05:13:15.237Z,1000.56
2017-10-28T05:14:15.233Z,1000.47
2017-10-28T05:15:15.525Z,1000.4
2017-10-28T05:16:15.219Z,1000.39
2017-10-28T05:17:15.215Z,1000.37
2017-10-28T05:18:15.212Z,1000.33
2017-10-28T05:19:15.210Z,1000.32
2017-10-28T05:20:15.276Z,1000.33
2017-10-28T05:21:15.195Z,1000.29
2017-10-28T05:22:15.195Z,1000.31
2017-10-28T05:23:15.186Z,1000.27
2017-10-28T05:24:15.180Z,1000.26
2017-10-28T05:25:15.399Z,1000.28
2017-10-28T05:26:15.171Z,1000.35
2017-10-28T05:27:15.168Z,1000.43
2017-10-28T05:28:15.179Z,1000.48
2017-10-28T05:29:15.175Z,1000.55
2017-10-28T05:30:15.298Z,1000.5
2017-10-28T05:31:15.158Z,1000.56
2017-10-28T05:32:15.144Z,1000.59
2017-10-28T05:33:15.138Z,1000.55
2017-10-28T05:34:15.934Z,1000.43
2017-10-28T05:35:15.222Z,1000.39
2017-10-28T05:36:15.124Z,1000.41
2017-10-28T05:37:15.123Z,1000.44
2017-10-28T05:38:15.122Z,1000.43
2017-10-28T05:39:15.113Z,1000.48
2017-10-28T05:40:15.189Z,1000.47
2017-10-28T05:41:15.102Z,1000.45
2017-10-28T05:42:15.104Z,1000.52
2017-10-28T05:43:15.112Z,1000.51
2017-10-28T05:44:15.087Z,1000.58
2017-10-28T05:45:15.394Z,1000.62
2017-10-28T05:46:15.080Z,1000.61
2017-10-28T05:47:15.074Z,1000.63
2017-10-28T05:48:15.068Z,1000.68
2017-10-28T05:49:15.067Z,1000.7
2017-10-28T05:50:15.272Z,1000.65
2017-10-28T05:51:15.063Z,1000.66
2017-10-28T05:52:15.058Z,1000.6
2017-10-28T05:53:15.046Z,1000.6
2017-10-28T05:54:15.042Z,1000.62
2017-10-28T05:55:15.657Z,1000.58
2017-10-28T05:56:15.045Z,1000.54
2017-10-28T05:57:15.030Z,1000.49
2017-10-28T05:58:15.026Z,1000.47
2017-10-28T05:59:15.020Z,1000.52
2017-10-28T06:00:15.219Z,1000.53
2017-10-28T06:01:15.013Z,1000.59
2017-10-28T06:02:15.030Z,1000.56
2017-10-28T06:03:15.005Z,1000.62
2017-10-28T06:04:15.036Z,1000.69
2017-10-28T06:05:15.073Z,1000.69
2017-10-28T06:06:15.035Z,1000.7
2017-10-28T06:07:15.003Z,1000.7
2017-10-28T06:08:14.992Z,1000.69
2017-10-28T06:09:14.983Z,1000.67
2017-10-28T06:10:15.224Z,1000.7
2017-10-28T06:11:14.966Z,1000.68
2017-10-28T06:12:14.962Z,1000.7
2017-10-28T06:13:14.969Z,1000.69
2017-10-28T06:14:14.953Z,1000.63
2017-10-28T06:15:15.148Z,1000.68
2017-10-28T06:16:14.944Z,1000.54
2017-10-28T06:17:14.940Z,1000.59
2017-10-28T06:18:14.936Z,1000.59
2017-10-28T06:19:14.931Z,1000.52
2017-10-28T06:20:15.084Z,1000.54
2017-10-28T06:21:14.922Z,1000.5
2017-10-28T06:22:14.920Z,1000.46
2017-10-28T06:23:14.914Z,1000.45
2017-10-28T06:24:14.912Z,1000.41
2017-10-28T06:25:15.256Z,1000.36
2017-10-28T06:26:14.906Z,1000.32
2017-10-28T06:27:14.897Z,1000.32
2017-10-28T06:28:14.891Z,1000.34
2017-10-28T06:29:14.887Z,1000.34
2017-10-28T06:30:15.155Z,1000.29
2017-10-28T06:31:14.880Z,1000.35
2017-10-28T06:32:14.873Z,1000.36
2017-10-28T06:33:14.873Z,1000.41
2017-10-28T06:34:14.866Z,1000.38
2017-10-28T06:35:16.048Z,1000.42
2017-10-28T06:36:14.868Z,1000.44
2017-10-28T06:37:14.854Z,1000.41
2017-10-28T06:38:14.849Z,1000.39
2017-10-28T06:39:14.844Z,1000.43
2017-10-28T06:40:15.538Z,1000.44
2017-10-28T06:41:14.839Z,1000.41
2017-10-28T06:42:14.837Z,1000.42
2017-10-28T06:43:14.843Z,1000.45
2017-10-28T06:44:14.822Z,1000.38
2017-10-28T06:45:15.764Z,1000.41
2017-10-28T06:46:14.814Z,1000.38
2017-10-28T06:47:14.809Z,1000.32
2017-10-28T06:48:14.810Z,1000.32
2017-10-28T06:49:14.802Z,1000.29
2017-10-28T06:50:15.041Z,1000.21
2017-10-28T06:51:14.793Z,1000.24
2017-10-28T06:52:14.789Z,1000.3
2017-10-28T06:53:14.786Z,1000.31
2017-10-28T06:54:14.782Z,1000.32
2017-10-28T06:55:14.883Z,1000.33
2017-10-28T06:56:14.774Z,1000.39
2017-10-28T06:57:14.768Z,1000.38
2017-10-28T06:58:14.765Z,1000.42
2017-10-28T06:59:14.761Z,1000.38
2017-10-28T07:00:15.149Z,1000.4
2017-10-28T07:01:14.752Z,1000.45
2017-10-28T07:02:14.749Z,1000.49
2017-10-28T07:03:14.744Z,1000.47
2017-10-28T07:04:14.740Z,1000.45
2017-10-28T07:05:14.966Z,1000.46
2017-10-28T07:06:14.733Z,1000.47
2017-10-28T07:07:14.728Z,1000.39
2017-10-28T07:08:14.728Z,1000.33
2017-10-28T07:09:14.727Z,1000.4
2017-10-28T07:10:14.887Z,1000.39
2017-10-28T07:11:14.712Z,1000.38
2017-10-28T07:12:14.712Z,1000.41
2017-10-28T07:13:14.703Z,1000.38
2017-10-28T07:14:14.700Z,1000.37
2017-10-28T07:15:14.971Z,1000.36
2017-10-28T07:16:14.692Z,1000.33
2017-10-28T07:17:14.694Z,1000.39
2017-10-28T07:18:14.685Z,1000.37
2017-10-28T07:19:14.685Z,1000.39
2017-10-28T07:20:15.270Z,1000.33
2017-10-28T07:21:14.677Z,1000.27
2017-10-28T07:22:14.681Z,1000.24
2017-10-28T07:23:14.668Z,1000.26
2017-10-28T07:24:14.662Z,1000.26
2017-10-28T07:25:14.814Z,1000.25
2017-10-28T07:26:14.656Z,1000.22
2017-10-28T07:27:14.651Z,1000.18
2017-10-28T07:28:14.649Z,1000.06
2017-10-28T07:29:14.643Z,1000.08
2017-10-28T07:30:14.884Z,1000.07
2017-10-28T07:31:14.641Z,1000.05
2017-10-28T07:32:14.633Z,999.99
2017-10-28T07:33:14.636Z,1000.04
2017-10-28T07:34:14.628Z,1000.08
2017-10-28T07:35:14.939Z,1000.13
2017-10-28T07:36:14.668Z,1000.14
2017-10-28T07:37:14.615Z,1000.1
2017-10-28T07:38:14.610Z,1000.17
2017-10-28T07:39:14.613Z,1000.16
2017-10-28T07:40:15.034Z,1000.22
2017-10-28T07:41:14.599Z,1000.26
2017-10-28T07:42:14.596Z,1000.24
2017-10-28T07:43:14.593Z,1000.29
2017-10-28T07:44:14.591Z,1000.29
2017-10-28T07:45:15.050Z,1000.3
2017-10-28T07:46:14.583Z,1000.36
2017-10-28T07:47:14.577Z,1000.37
2017-10-28T07:48:14.574Z,1000.4
2017-10-28T07:49:14.571Z,1000.39
2017-10-28T07:50:14.798Z,1000.42
2017-10-28T07:51:20.970Z,1000.33
2017-10-28T07:52:14.562Z,1000.36
2017-10-28T07:53:14.557Z,1000.4
2017-10-28T07:54:14.553Z,1000.38
2017-10-28T07:55:14.829Z,1000.34
2017-10-28T07:56:14.546Z,1000.35
2017-10-28T07:57:14.544Z,1000.3
2017-10-28T07:58:14.539Z,1000.27
2017-10-28T07:59:14.536Z,1000.23
2017-10-28T08:00:14.861Z,1000.22
2017-10-28T08:01:14.531Z,1000.2
2017-10-28T08:02:14.527Z,1000.24
2017-10-28T08:03:14.522Z,1000.23
2017-10-28T08:04:14.530Z,1000.3
2017-10-28T08:05:15.002Z,1000.32
2017-10-28T08:06:14.522Z,1000.35
2017-10-28T08:07:14.541Z,1000.35
2017-10-28T08:08:14.510Z,1000.36
2017-10-28T08:09:14.505Z,1000.36
2017-10-28T08:10:14.939Z,1000.35
2017-10-28T08:11:14.506Z,1000.34
2017-10-28T08:12:14.496Z,1000.34
2017-10-28T08:13:14.493Z,1000.3
2017-10-28T08:14:14.489Z,1000.3
2017-10-28T08:15:14.837Z,1000.31
2017-10-28T08:16:14.484Z,1000.3
2017-10-28T08:17:14.484Z,1000.27
2017-10-28T08:18:14.479Z,1000.23
2017-10-28T08:19:14.483Z,1000.19
2017-10-28T08:20:14.635Z,1000.09
2017-10-28T08:21:14.471Z,1000.08
2017-10-28T08:22:16.321Z,1000.11
2017-10-28T08:23:14.467Z,1000.1
2017-10-28T08:24:14.472Z,1000.09
2017-10-28T08:25:15.071Z,1000.01
2017-10-28T08:26:14.460Z,1000.07
2017-10-28T08:27:14.458Z,1000
2017-10-28T08:28:14.456Z,999.94
2017-10-28T08:29:14.457Z,999.89
2017-10-28T08:30:14.607Z,999.82
2017-10-28T08:31:14.450Z,999.91
2017-10-28T08:32:14.449Z,999.92
2017-10-28T08:33:14.447Z,999.87
2017-10-28T08:34:14.443Z,999.82
2017-10-28T08:35:14.512Z,999.77
2017-10-28T08:36:14.438Z,999.77
2017-10-28T08:37:14.437Z,999.67
2017-10-28T08:38:14.476Z,999.63
2017-10-28T08:39:14.514Z,999.57
2017-10-28T08:40:14.729Z,999.52
2017-10-28T08:41:14.430Z,999.48
2017-10-28T08:42:14.436Z,999.44
2017-10-28T08:43:14.425Z,999.38
2017-10-28T08:44:14.423Z,999.44
2017-10-28T08:45:14.776Z,999.4
2017-10-28T08:46:14.421Z,999.36
2017-10-28T08:47:14.418Z,999.43
2017-10-28T08:48:14.415Z,999.36
2017-10-28T08:49:14.414Z,999.41
2017-10-28T08:50:14.718Z,999.39
2017-10-28T08:51:14.410Z,999.36
2017-10-28T08:52:14.408Z,999.34
2017-10-28T08:53:14.405Z,999.32
2017-10-28T08:54:14.404Z,999.28
2017-10-28T08:55:14.650Z,999.25
2017-10-28T08:56:14.403Z,999.18
2017-10-28T08:57:14.441Z,999.1
2017-10-28T08:58:14.398Z,999.15
2017-10-28T08:59:14.393Z,999.2
2017-10-28T09:00:14.615Z,999.2
2017-10-28T09:01:14.389Z,999.28
2017-10-28T09:02:14.389Z,999.24
2017-10-28T09:03:14.387Z,999.33
2017-10-28T09:04:14.385Z,999.37
2017-10-28T09:05:14.917Z,999.32
2017-10-28T09:06:14.381Z,999.22
2017-10-28T09:07:14.388Z,999.21
2017-10-28T09:08:16.355Z,999.18
2017-10-28T09:09:14.381Z,999.19
2017-10-28T09:10:14.679Z,999.26
2017-10-28T09:11:14.373Z,999.25
2017-10-28T09:12:14.371Z,999.24
2017-10-28T09:13:14.369Z,999.18
2017-10-28T09:14:14.367Z,999.17
2017-10-28T09:15:14.549Z,999.14
2017-10-28T09:16:14.380Z,999.17
2017-10-28T09:17:14.361Z,999.2
2017-10-28T09:18:14.361Z,999.22
2017-10-28T09:19:14.361Z,999.27
2017-10-28T09:20:14.806Z,999.22
2017-10-28T09:21:14.364Z,999.23
2017-10-28T09:22:14.369Z,999.23
2017-10-28T09:23:14.361Z,999.23
2017-10-28T09:24:14.352Z,999.24
2017-10-28T09:25:14.966Z,999.27
2017-10-28T09:26:14.346Z,999.3
2017-10-28T09:27:14.344Z,999.33
2017-10-28T09:28:14.342Z,999.32
2017-10-28T09:29:14.344Z,999.26
2017-10-28T09:30:14.648Z,999.24
2017-10-28T09:31:14.336Z,999.27
2017-10-28T09:32:14.339Z,999.27
2017-10-28T09:33:14.338Z,999.2
2017-10-28T09:34:14.332Z,999.08
2017-10-28T09:35:14.921Z,999.03
2017-10-28T09:36:14.329Z,999.05
2017-10-28T09:37:14.329Z,999.09
2017-10-28T09:38:14.326Z,999.12
2017-10-28T09:39:14.324Z,999.06
2017-10-28T09:40:14.715Z,998.97
2017-10-28T09:41:14.322Z,998.95
2017-10-28T09:42:14.331Z,998.98
2017-10-28T09:43:14.322Z,998.99
2017-10-28T09:44:14.321Z,999.07
2017-10-28T09:45:14.683Z,999.1
2017-10-28T09:46:14.314Z,999.04
2017-10-28T09:47:14.313Z,999
2017-10-28T09:48:14.311Z,998.98
2017-10-28T09:49:14.322Z,998.97
2017-10-28T09:50:14.619Z,999.01
2017-10-28T09:51:14.308Z,999.02
2017-10-28T09:52:14.305Z,998.96
2017-10-28T09:53:14.304Z,999.03
2017-10-28T09:54:15.404Z,999.08
2017-10-28T09:55:14.832Z,999.07
2017-10-28T09:56:14.300Z,999.01
2017-10-28T09:57:14.299Z,998.99
2017-10-28T09:58:14.295Z,998.99
2017-10-28T09:59:14.296Z,998.9
2017-10-28T10:00:14.789Z,998.9
2017-10-28T10:01:14.291Z,998.83
2017-10-28T10:02:14.290Z,998.79
2017-10-28T10:03:14.289Z,998.87
2017-10-28T10:04:14.288Z,998.87
2017-10-28T10:05:14.620Z,998.91
2017-10-28T10:06:14.284Z,998.91
2017-10-28T10:07:14.287Z,998.96
2017-10-28T10:08:14.304Z,998.99
2017-10-28T10:09:14.281Z,999.02
2017-10-28T10:10:14.765Z,999.05
2017-10-28T10:11:14.278Z,999.02
2017-10-28T10:12:14.278Z,999.03
2017-10-28T10:13:14.276Z,999.01
2017-10-28T10:14:14.274Z,998.96
2017-10-28T10:15:14.508Z,998.96
2017-10-28T10:16:14.272Z,998.9
2017-10-28T10:17:14.270Z,998.93
2017-10-28T10:18:14.269Z,998.96
2017-10-28T10:19:14.268Z,999
2017-10-28T10:20:14.487Z,999.03
2017-10-28T10:21:14.265Z,999.05
2017-10-28T10:22:14.266Z,999.03
2017-10-28T10:23:14.265Z,998.96
2017-10-28T10:24:14.262Z,998.96
2017-10-28T10:25:14.717Z,998.99
2017-10-28T10:26:14.259Z,998.94
2017-10-28T10:27:14.258Z,998.9
2017-10-28T10:28:14.256Z,998.88
2017-10-28T10:29:14.254Z,998.85
2017-10-28T10:30:14.353Z,998.82
2017-10-28T10:31:14.252Z,998.78
2017-10-28T10:32:14.258Z,998.82
2017-10-28T10:33:14.250Z,998.85
2017-10-28T10:34:14.248Z,998.85
2017-10-28T10:35:14.443Z,998.78
2017-10-28T10:36:14.244Z,998.65
2017-10-28T10:37:14.285Z,998.69
2017-10-28T10:38:14.243Z,998.71
2017-10-28T10:39:14.243Z,998.73
2017-10-28T10:40:14.544Z,998.66
2017-10-28T10:41:14.240Z,998.59
2017-10-28T10:42:14.246Z,998.53
2017-10-28T10:43:14.239Z,998.53
2017-10-28T10:44:14.244Z,998.54
2017-10-28T10:45:14.533Z,998.55
2017-10-28T10:46:14.244Z,998.61
2017-10-28T10:47:14.242Z,998.54
2017-10-28T10:48:14.241Z,998.46
2017-10-28T10:49:14.235Z,998.57
2017-10-28T10:50:14.424Z,998.44
2017-10-28T10:51:14.233Z,998.59
2017-10-28T10:52:14.232Z,998.61
2017-10-28T10:53:14.232Z,998.39
2017-10-28T10:54:14.231Z,998.47
2017-10-28T10:55:14.389Z,998.53
2017-10-28T10:56:14.231Z,998.55
2017-10-28T10:57:14.229Z,998.43
2017-10-28T10:58:14.226Z,998.5
2017-10-28T10:59:14.281Z,998.58
2017-10-28T11:00:14.465Z,998.56
2017-10-28T11:01:14.258Z,998.46
2017-10-28T11:02:14.223Z,998.51
2017-10-28T11:03:14.222Z,998.47
2017-10-28T11:04:14.222Z,998.49
2017-10-28T11:05:14.455Z,998.46
2017-10-28T11:06:14.219Z,998.38
2017-10-28T11:07:14.217Z,998.51
2017-10-28T11:08:14.218Z,998.51
2017-10-28T11:09:14.214Z,998.45
2017-10-28T11:10:14.363Z,998.42
2017-10-28T11:11:14.216Z,998.41
2017-10-28T11:12:14.214Z,998.4
2017-10-28T11:13:14.212Z,998.45
2017-10-28T11:14:14.213Z,998.43
2017-10-28T11:15:14.460Z,998.17
2017-10-28T11:16:14.221Z,998.43
2017-10-28T11:17:14.208Z,998.36
2017-10-28T11:18:14.218Z,998.33
2017-10-28T11:19:14.211Z,998.28
2017-10-28T11:20:14.534Z,998.24
2017-10-28T11:21:14.204Z,998.33
2017-10-28T11:22:14.216Z,998.29
2017-10-28T11:23:14.203Z,998.25
2017-10-28T11:24:14.207Z,998.35
2017-10-28T11:25:14.485Z,998.26
2017-10-28T11:26:14.207Z,998.21
2017-10-28T11:27:14.195Z,998.27
2017-10-28T11:28:14.200Z,998.24
2017-10-28T11:29:14.198Z,998.1
2017-10-28T11:30:14.342Z,998.04
2017-10-28T11:31:14.191Z,998.02
2017-10-28T11:32:14.236Z,998.06
2017-10-28T11:33:14.213Z,998.05
2017-10-28T11:34:14.195Z,998
2017-10-28T11:35:14.352Z,997.9
2017-10-28T11:36:14.184Z,997.91
2017-10-28T11:37:14.203Z,997.83
2017-10-28T11:38:14.196Z,997.73
2017-10-28T11:39:14.185Z,997.76
2017-10-28T11:40:14.563Z,997.8
2017-10-28T11:41:14.185Z,997.7
2017-10-28T11:42:14.179Z,997.66
2017-10-28T11:43:14.177Z,997.68
2017-10-28T11:44:14.182Z,997.66
2017-10-28T11:45:14.411Z,997.73
2017-10-28T11:46:14.175Z,997.75
2017-10-28T11:47:14.175Z,997.74
2017-10-28T11:48:14.185Z,997.71
2017-10-28T11:49:14.172Z,997.73
2017-10-28T11:50:14.613Z,997.65
2017-10-28T11:51:14.167Z,997.57
2017-10-28T11:52:14.169Z,997.47
2017-10-28T11:53:14.166Z,997.34
2017-10-28T11:54:14.166Z,997.33
2017-10-28T11:55:14.801Z,997.5
2017-10-28T11:56:14.163Z,997.44
2017-10-28T11:57:14.161Z,997.42
2017-10-28T11:58:14.159Z,997.4
2017-10-28T11:59:14.162Z,997.44
2017-10-28T12:00:14.662Z,997.47
2017-10-28T12:01:14.155Z,997.44
2017-10-28T12:02:14.154Z,997.41
2017-10-28T12:03:14.174Z,997.4
2017-10-28T12:04:14.153Z,997.35
2017-10-28T12:05:15.365Z,997.37
2017-10-28T12:06:14.151Z,997.4
2017-10-28T12:07:14.149Z,997.36
2017-10-28T12:08:14.155Z,997.42
2017-10-28T12:09:14.148Z,997.37
2017-10-28T12:10:14.607Z,997.36
2017-10-28T12:11:14.150Z,997.4
2017-10-28T12:12:14.142Z,997.39
2017-10-28T12:13:14.141Z,997.3
2017-10-28T12:14:14.145Z,997.32
2017-10-28T12:15:14.452Z,997.42